sensor_id;sensor_type;location;lat;lon;timestamp;P1;durP1;ratioP1;P2;durP2;ratioP2
45909;SDS011;31622;55.416;37.840;2023-06-14T00:00:18;6.32;;;3.25;;
45909;SDS011;31622;55.416;37.840;2023-06-14T00:02:45;5.03;;;2.97;;
45909;SDS011;31622;55.416;37.840;2023-06-14T00:05:10;5.97;;;3.80;;
45909;SDS011;31622;55.416;37.840;2023-06-14T00:07:40;6.80;;;3.42;;
45909;SDS011;31622;55.416;37.840;2023-06-14T00:10:10;5.43;;;3.33;;
45909;SDS011;31622;55.416;37.840;2023-06-14T00:12:36;5.35;;;3.45;;
45909;SDS011;31622;55.416;37.840;2023-06-14T00:15:03;7.95;;;3.40;;
45909;SDS011;31622;55.416;37.840;2023-06-14T00:17:30;4.65;;;3.40;;
45909;SDS011;31622;55.416;37.840;2023-06-14T00:19:57;5.18;;;3.35;;
45909;SDS011;31622;55.416;37.840;2023-06-14T00:22:23;4.38;;;3.53;;
45909;SDS011;31622;55.416;37.840;2023-06-14T00:24:54;8.50;;;3.60;;
45909;SDS011;31622;55.416;37.840;2023-06-14T00:27:19;8.02;;;3.45;;
45909;SDS011;31622;55.416;37.840;2023-06-14T00:29:45;4.63;;;3.28;;
45909;SDS011;31622;55.416;37.840;2023-06-14T00:32:11;6.03;;;3.15;;
45909;SDS011;31622;55.416;37.840;2023-06-14T00:34:36;7.88;;;3.13;;
45909;SDS011;31622;55.416;37.840;2023-06-14T00:37:02;5.63;;;3.22;;
45909;SDS011;31622;55.416;37.840;2023-06-14T00:39:28;8.05;;;3.50;;
45909;SDS011;31622;55.416;37.840;2023-06-14T00:41:54;7.22;;;3.67;;
45909;SDS011;31622;55.416;37.840;2023-06-14T00:44:20;5.50;;;3.45;;
45909;SDS011;31622;55.416;37.840;2023-06-14T00:46:47;8.00;;;3.35;;
45909;SDS011;31622;55.416;37.840;2023-06-14T00:49:14;7.10;;;3.42;;
45909;SDS011;31622;55.416;37.840;2023-06-14T00:51:41;6.07;;;3.72;;
45909;SDS011;31622;55.416;37.840;2023-06-14T00:54:07;7.38;;;3.40;;
45909;SDS011;31622;55.416;37.840;2023-06-14T00:56:35;7.05;;;3.42;;
45909;SDS011;31622;55.416;37.840;2023-06-14T00:59:01;7.40;;;3.50;;
45909;SDS011;31622;55.416;37.840;2023-06-14T01:01:28;6.15;;;3.85;;
45909;SDS011;31622;55.416;37.840;2023-06-14T01:03:54;7.43;;;3.55;;
45909;SDS011;31622;55.416;37.840;2023-06-14T01:06:27;7.07;;;3.20;;
45909;SDS011;31622;55.416;37.840;2023-06-14T01:14:44;7.50;;;3.47;;
45909;SDS011;31622;55.416;37.840;2023-06-14T01:17:10;6.40;;;3.33;;
45909;SDS011;31622;55.416;37.840;2023-06-14T01:19:44;7.13;;;3.80;;
45909;SDS011;31622;55.416;37.840;2023-06-14T01:22:13;5.47;;;2.97;;
45909;SDS011;31622;55.416;37.840;2023-06-14T01:24:38;7.50;;;3.60;;
45909;SDS011;31622;55.416;37.840;2023-06-14T01:27:04;5.22;;;3.15;;
45909;SDS011;31622;55.416;37.840;2023-06-14T01:29:31;8.18;;;3.40;;
45909;SDS011;31622;55.416;37.840;2023-06-14T01:32:01;5.60;;;3.00;;
45909;SDS011;31622;55.416;37.840;2023-06-14T01:34:29;8.05;;;3.20;;
45909;SDS011;31622;55.416;37.840;2023-06-14T01:36:55;5.00;;;2.97;;
45909;SDS011;31622;55.416;37.840;2023-06-14T01:39:21;7.30;;;3.80;;
45909;SDS011;31622;55.416;37.840;2023-06-14T01:41:47;4.57;;;3.03;;
45909;SDS011;31622;55.416;37.840;2023-06-14T01:44:14;4.53;;;3.08;;
45909;SDS011;31622;55.416;37.840;2023-06-14T01:46:41;6.43;;;3.15;;
45909;SDS011;31622;55.416;37.840;2023-06-14T01:49:08;4.97;;;2.90;;
45909;SDS011;31622;55.416;37.840;2023-06-14T01:51:33;5.80;;;3.15;;
45909;SDS011;31622;55.416;37.840;2023-06-14T01:53:59;8.38;;;3.30;;
45909;SDS011;31622;55.416;37.840;2023-06-14T01:56:25;5.57;;;3.22;;
45909;SDS011;31622;55.416;37.840;2023-06-14T01:58:51;5.78;;;3.10;;
45909;SDS011;31622;55.416;37.840;2023-06-14T02:01:17;6.10;;;2.92;;
45909;SDS011;31622;55.416;37.840;2023-06-14T02:03:44;6.30;;;3.63;;
45909;SDS011;31622;55.416;37.840;2023-06-14T02:06:10;6.15;;;3.35;;
45909;SDS011;31622;55.416;37.840;2023-06-14T02:08:36;7.40;;;3.58;;
45909;SDS011;31622;55.416;37.840;2023-06-14T02:11:01;8.07;;;3.40;;
45909;SDS011;31622;55.416;37.840;2023-06-14T02:13:27;7.15;;;3.28;;
45909;SDS011;31622;55.416;37.840;2023-06-14T02:15:53;7.93;;;3.35;;
45909;SDS011;31622;55.416;37.840;2023-06-14T02:18:20;6.28;;;3.15;;
45909;SDS011;31622;55.416;37.840;2023-06-14T02:20:47;6.38;;;3.08;;
45909;SDS011;31622;55.416;37.840;2023-06-14T02:23:13;9.35;;;2.90;;
45909;SDS011;31622;55.416;37.840;2023-06-14T02:25:38;7.40;;;3.55;;
45909;SDS011;31622;55.416;37.840;2023-06-14T02:28:06;6.75;;;3.30;;
45909;SDS011;31622;55.416;37.840;2023-06-14T02:30:32;8.13;;;3.35;;
45909;SDS011;31622;55.416;37.840;2023-06-14T02:32:58;8.73;;;3.60;;
45909;SDS011;31622;55.416;37.840;2023-06-14T02:35:24;8.43;;;3.00;;
45909;SDS011;31622;55.416;37.840;2023-06-14T02:37:51;10.02;;;3.33;;
45909;SDS011;31622;55.416;37.840;2023-06-14T02:40:18;7.05;;;3.60;;
45909;SDS011;31622;55.416;37.840;2023-06-14T02:42:44;10.50;;;3.05;;
45909;SDS011;31622;55.416;37.840;2023-06-14T02:45:10;5.45;;;2.88;;
45909;SDS011;31622;55.416;37.840;2023-06-14T02:47:36;8.75;;;3.13;;
45909;SDS011;31622;55.416;37.840;2023-06-14T02:50:02;5.63;;;2.80;;
45909;SDS011;31622;55.416;37.840;2023-06-14T02:52:28;8.20;;;3.20;;
45909;SDS011;31622;55.416;37.840;2023-06-14T02:54:54;9.10;;;2.88;;
45909;SDS011;31622;55.416;37.840;2023-06-14T02:57:20;9.40;;;3.55;;
45909;SDS011;31622;55.416;37.840;2023-06-14T02:59:47;7.55;;;3.20;;
45909;SDS011;31622;55.416;37.840;2023-06-14T03:02:13;7.03;;;3.53;;
45909;SDS011;31622;55.416;37.840;2023-06-14T03:04:39;7.28;;;3.05;;
45909;SDS011;31622;55.416;37.840;2023-06-14T03:07:10;8.63;;;3.15;;
45909;SDS011;31622;55.416;37.840;2023-06-14T03:09:38;7.97;;;3.75;;
45909;SDS011;31622;55.416;37.840;2023-06-14T03:12:05;7.95;;;3.63;;
45909;SDS011;31622;55.416;37.840;2023-06-14T03:14:35;8.20;;;3.08;;
45909;SDS011;31622;55.416;37.840;2023-06-14T03:17:02;6.10;;;3.55;;
45909;SDS011;31622;55.416;37.840;2023-06-14T03:19:30;10.80;;;3.70;;
45909;SDS011;31622;55.416;37.840;2023-06-14T03:21:56;6.28;;;3.20;;
45909;SDS011;31622;55.416;37.840;2023-06-14T03:24:26;8.07;;;3.42;;
45909;SDS011;31622;55.416;37.840;2023-06-14T03:26:57;8.63;;;3.83;;
45909;SDS011;31622;55.416;37.840;2023-06-14T03:29:25;7.63;;;3.47;;
45909;SDS011;31622;55.416;37.840;2023-06-14T03:32:01;7.68;;;3.58;;
45909;SDS011;31622;55.416;37.840;2023-06-14T03:34:38;9.93;;;3.78;;
45909;SDS011;31622;55.416;37.840;2023-06-14T03:37:05;10.40;;;3.88;;
45909;SDS011;31622;55.416;37.840;2023-06-14T03:39:31;12.00;;;3.97;;
45909;SDS011;31622;55.416;37.840;2023-06-14T03:41:56;8.48;;;3.85;;
45909;SDS011;31622;55.416;37.840;2023-06-14T03:44:22;12.20;;;3.80;;
45909;SDS011;31622;55.416;37.840;2023-06-14T03:46:48;7.45;;;3.80;;
45909;SDS011;31622;55.416;37.840;2023-06-14T03:49:14;11.90;;;4.63;;
45909;SDS011;31622;55.416;37.840;2023-06-14T03:51:43;8.40;;;3.70;;
45909;SDS011;31622;55.416;37.840;2023-06-14T03:54:08;12.35;;;5.75;;
45909;SDS011;31622;55.416;37.840;2023-06-14T03:56:36;10.15;;;4.10;;
45909;SDS011;31622;55.416;37.840;2023-06-14T03:59:02;10.18;;;4.05;;
45909;SDS011;31622;55.416;37.840;2023-06-14T04:01:28;6.95;;;3.90;;
45909;SDS011;31622;55.416;37.840;2023-06-14T04:03:57;8.05;;;3.92;;
45909;SDS011;31622;55.416;37.840;2023-06-14T04:06:25;5.68;;;3.75;;
45909;SDS011;31622;55.416;37.840;2023-06-14T04:08:57;7.82;;;3.95;;
45909;SDS011;31622;55.416;37.840;2023-06-14T04:11:27;6.70;;;3.80;;
45909;SDS011;31622;55.416;37.840;2023-06-14T04:13:53;7.90;;;4.47;;
45909;SDS011;31622;55.416;37.840;2023-06-14T04:16:22;7.85;;;3.95;;
45909;SDS011;31622;55.416;37.840;2023-06-14T04:18:47;11.07;;;4.22;;
45909;SDS011;31622;55.416;37.840;2023-06-14T04:21:17;6.75;;;3.70;;
45909;SDS011;31622;55.416;37.840;2023-06-14T04:23:43;12.60;;;4.93;;
45909;SDS011;31622;55.416;37.840;2023-06-14T04:26:10;7.95;;;4.07;;
45909;SDS011;31622;55.416;37.840;2023-06-14T04:28:38;14.10;;;4.30;;
45909;SDS011;31622;55.416;37.840;2023-06-14T04:31:06;11.50;;;4.95;;
45909;SDS011;31622;55.416;37.840;2023-06-14T04:33:35;9.73;;;4.85;;
45909;SDS011;31622;55.416;37.840;2023-06-14T04:36:09;12.80;;;5.57;;
45909;SDS011;31622;55.416;37.840;2023-06-14T04:38:37;11.15;;;5.43;;
45909;SDS011;31622;55.416;37.840;2023-06-14T04:41:03;17.33;;;7.65;;
45909;SDS011;31622;55.416;37.840;2023-06-14T04:43:29;11.98;;;5.70;;
45909;SDS011;31622;55.416;37.840;2023-06-14T04:45:56;14.93;;;7.00;;
45909;SDS011;31622;55.416;37.840;2023-06-14T04:48:23;11.05;;;6.65;;
45909;SDS011;31622;55.416;37.840;2023-06-14T04:50:50;10.50;;;5.60;;
45909;SDS011;31622;55.416;37.840;2023-06-14T04:53:18;15.88;;;5.72;;
45909;SDS011;31622;55.416;37.840;2023-06-14T04:55:48;13.07;;;6.30;;
45909;SDS011;31622;55.416;37.840;2023-06-14T04:58:16;11.48;;;6.70;;
45909;SDS011;31622;55.416;37.840;2023-06-14T05:00:42;18.30;;;7.03;;
45909;SDS011;31622;55.416;37.840;2023-06-14T05:03:08;15.80;;;6.88;;
45909;SDS011;31622;55.416;37.840;2023-06-14T05:05:34;13.25;;;5.30;;
45909;SDS011;31622;55.416;37.840;2023-06-14T05:08:00;12.70;;;4.63;;
45909;SDS011;31622;55.416;37.840;2023-06-14T05:10:26;10.93;;;5.20;;
45909;SDS011;31622;55.416;37.840;2023-06-14T05:12:53;8.50;;;4.57;;
45909;SDS011;31622;55.416;37.840;2023-06-14T05:15:19;14.07;;;5.22;;
45909;SDS011;31622;55.416;37.840;2023-06-14T05:17:50;8.70;;;5.00;;
45909;SDS011;31622;55.416;37.840;2023-06-14T05:20:23;7.80;;;4.75;;
45909;SDS011;31622;55.416;37.840;2023-06-14T05:22:52;9.95;;;4.93;;
45909;SDS011;31622;55.416;37.840;2023-06-14T05:25:19;8.55;;;4.45;;
45909;SDS011;31622;55.416;37.840;2023-06-14T05:27:46;11.73;;;4.05;;
45909;SDS011;31622;55.416;37.840;2023-06-14T05:30:12;8.18;;;4.15;;
45909;SDS011;31622;55.416;37.840;2023-06-14T05:32:38;12.63;;;4.68;;
45909;SDS011;31622;55.416;37.840;2023-06-14T05:35:04;9.25;;;4.40;;
45909;SDS011;31622;55.416;37.840;2023-06-14T05:37:31;8.80;;;4.03;;
45909;SDS011;31622;55.416;37.840;2023-06-14T05:39:57;6.55;;;4.10;;
45909;SDS011;31622;55.416;37.840;2023-06-14T05:42:22;8.50;;;3.92;;
45909;SDS011;31622;55.416;37.840;2023-06-14T05:44:48;6.25;;;3.63;;
45909;SDS011;31622;55.416;37.840;2023-06-14T05:47:14;6.47;;;3.25;;
45909;SDS011;31622;55.416;37.840;2023-06-14T05:49:39;5.97;;;3.40;;
45909;SDS011;31622;55.416;37.840;2023-06-14T05:52:05;6.97;;;3.80;;
45909;SDS011;31622;55.416;37.840;2023-06-14T05:54:32;6.40;;;3.58;;
45909;SDS011;31622;55.416;37.840;2023-06-14T05:56:57;7.05;;;3.33;;
45909;SDS011;31622;55.416;37.840;2023-06-14T05:59:29;8.23;;;3.50;;
45909;SDS011;31622;55.416;37.840;2023-06-14T06:01:55;5.25;;;3.20;;
45909;SDS011;31622;55.416;37.840;2023-06-14T06:04:20;12.40;;;3.33;;
45909;SDS011;31622;55.416;37.840;2023-06-14T06:06:46;7.82;;;3.03;;
45909;SDS011;31622;55.416;37.840;2023-06-14T06:09:12;8.45;;;3.45;;
45909;SDS011;31622;55.416;37.840;2023-06-14T06:11:39;7.15;;;3.17;;
45909;SDS011;31622;55.416;37.840;2023-06-14T06:14:05;5.63;;;3.10;;
45909;SDS011;31622;55.416;37.840;2023-06-14T06:16:31;5.90;;;3.20;;
45909;SDS011;31622;55.416;37.840;2023-06-14T06:18:57;6.28;;;3.17;;
45909;SDS011;31622;55.416;37.840;2023-06-14T06:21:23;7.45;;;3.20;;
45909;SDS011;31622;55.416;37.840;2023-06-14T06:23:48;9.93;;;3.50;;
45909;SDS011;31622;55.416;37.840;2023-06-14T06:26:14;10.30;;;3.60;;
45909;SDS011;31622;55.416;37.840;2023-06-14T06:28:40;9.15;;;3.30;;
45909;SDS011;31622;55.416;37.840;2023-06-14T06:31:06;9.32;;;2.80;;
45909;SDS011;31622;55.416;37.840;2023-06-14T06:33:31;5.28;;;3.10;;
45909;SDS011;31622;55.416;37.840;2023-06-14T06:35:57;8.60;;;3.08;;
45909;SDS011;31622;55.416;37.840;2023-06-14T06:38:23;6.18;;;2.65;;
45909;SDS011;31622;55.416;37.840;2023-06-14T06:40:48;6.93;;;2.80;;
45909;SDS011;31622;55.416;37.840;2023-06-14T06:43:14;7.05;;;2.80;;
45909;SDS011;31622;55.416;37.840;2023-06-14T06:45:45;5.00;;;2.95;;
45909;SDS011;31622;55.416;37.840;2023-06-14T06:48:11;6.57;;;2.55;;
45909;SDS011;31622;55.416;37.840;2023-06-14T06:50:36;4.28;;;2.30;;
45909;SDS011;31622;55.416;37.840;2023-06-14T06:53:02;7.22;;;2.35;;
45909;SDS011;31622;55.416;37.840;2023-06-14T06:55:28;6.00;;;2.45;;
45909;SDS011;31622;55.416;37.840;2023-06-14T06:57:54;6.05;;;2.22;;
45909;SDS011;31622;55.416;37.840;2023-06-14T07:00:20;4.25;;;2.35;;
45909;SDS011;31622;55.416;37.840;2023-06-14T07:02:46;3.92;;;2.20;;
45909;SDS011;31622;55.416;37.840;2023-06-14T07:05:12;5.15;;;2.33;;
45909;SDS011;31622;55.416;37.840;2023-06-14T07:07:38;6.57;;;2.40;;
45909;SDS011;31622;55.416;37.840;2023-06-14T07:10:04;3.58;;;1.92;;
45909;SDS011;31622;55.416;37.840;2023-06-14T07:12:33;6.88;;;2.42;;
45909;SDS011;31622;55.416;37.840;2023-06-14T07:15:01;5.85;;;2.20;;
45909;SDS011;31622;55.416;37.840;2023-06-14T07:17:28;14.23;;;8.77;;
45909;SDS011;31622;55.416;37.840;2023-06-14T07:19:54;17.25;;;8.00;;
45909;SDS011;31622;55.416;37.840;2023-06-14T07:22:19;9.98;;;6.65;;
45909;SDS011;31622;55.416;37.840;2023-06-14T07:24:45;14.00;;;5.63;;
45909;SDS011;31622;55.416;37.840;2023-06-14T07:27:11;10.30;;;4.80;;
45909;SDS011;31622;55.416;37.840;2023-06-14T07:29:38;37.47;;;5.28;;
45909;SDS011;31622;55.416;37.840;2023-06-14T07:32:04;13.68;;;3.70;;
45909;SDS011;31622;55.416;37.840;2023-06-14T07:34:30;9.85;;;3.15;;
45909;SDS011;31622;55.416;37.840;2023-06-14T07:36:56;6.88;;;2.72;;
45909;SDS011;31622;55.416;37.840;2023-06-14T07:39:22;15.30;;;3.30;;
45909;SDS011;31622;55.416;37.840;2023-06-14T07:41:48;8.48;;;2.85;;
45909;SDS011;31622;55.416;37.840;2023-06-14T07:44:14;7.55;;;2.25;;
45909;SDS011;31622;55.416;37.840;2023-06-14T07:46:41;3.05;;;2.10;;
45909;SDS011;31622;55.416;37.840;2023-06-14T07:49:06;4.97;;;2.05;;
45909;SDS011;31622;55.416;37.840;2023-06-14T07:51:32;6.45;;;2.60;;
45909;SDS011;31622;55.416;37.840;2023-06-14T07:53:59;4.43;;;2.42;;
45909;SDS011;31622;55.416;37.840;2023-06-14T07:56:26;6.25;;;2.22;;
45909;SDS011;31622;55.416;37.840;2023-06-14T07:58:51;8.77;;;2.03;;
45909;SDS011;31622;55.416;37.840;2023-06-14T08:01:17;7.80;;;2.35;;
45909;SDS011;31622;55.416;37.840;2023-06-14T08:03:45;7.40;;;2.15;;
45909;SDS011;31622;55.416;37.840;2023-06-14T08:06:10;5.00;;;2.20;;
45909;SDS011;31622;55.416;37.840;2023-06-14T08:08:36;3.47;;;2.15;;
45909;SDS011;31622;55.416;37.840;2023-06-14T08:11:02;6.45;;;2.30;;
45909;SDS011;31622;55.416;37.840;2023-06-14T08:13:28;3.67;;;2.25;;
45909;SDS011;31622;55.416;37.840;2023-06-14T08:15:54;4.07;;;2.17;;
45909;SDS011;31622;55.416;37.840;2023-06-14T08:18:20;2.85;;;2.13;;
45909;SDS011;31622;55.416;37.840;2023-06-14T08:20:46;4.43;;;2.42;;
45909;SDS011;31622;55.416;37.840;2023-06-14T08:23:12;3.95;;;2.30;;
45909;SDS011;31622;55.416;37.840;2023-06-14T08:25:38;4.28;;;2.38;;
45909;SDS011;31622;55.416;37.840;2023-06-14T08:28:04;2.95;;;2.10;;
45909;SDS011;31622;55.416;37.840;2023-06-14T08:30:30;7.55;;;2.38;;
45909;SDS011;31622;55.416;37.840;2023-06-14T08:32:55;9.10;;;2.65;;
45909;SDS011;31622;55.416;37.840;2023-06-14T08:35:22;4.15;;;2.20;;
45909;SDS011;31622;55.416;37.840;2023-06-14T08:37:47;5.03;;;2.65;;
45909;SDS011;31622;55.416;37.840;2023-06-14T08:40:21;4.18;;;2.30;;
45909;SDS011;31622;55.416;37.840;2023-06-14T08:42:51;4.78;;;2.42;;
45909;SDS011;31622;55.416;37.840;2023-06-14T08:45:19;5.07;;;2.30;;
45909;SDS011;31622;55.416;37.840;2023-06-14T08:47:48;3.97;;;2.22;;
45909;SDS011;31622;55.416;37.840;2023-06-14T08:50:23;5.35;;;2.72;;
45909;SDS011;31622;55.416;37.840;2023-06-14T08:52:55;3.00;;;2.20;;
45909;SDS011;31622;55.416;37.840;2023-06-14T08:55:22;3.65;;;2.83;;
45909;SDS011;31622;55.416;37.840;2023-06-14T08:57:51;5.00;;;2.67;;
45909;SDS011;31622;55.416;37.840;2023-06-14T09:00:24;5.40;;;2.75;;
45909;SDS011;31622;55.416;37.840;2023-06-14T09:02:51;6.80;;;2.55;;
45909;SDS011;31622;55.416;37.840;2023-06-14T09:05:25;4.00;;;2.55;;
45909;SDS011;31622;55.416;37.840;2023-06-14T09:07:52;4.05;;;2.60;;
45909;SDS011;31622;55.416;37.840;2023-06-14T09:10:20;3.38;;;2.38;;
45909;SDS011;31622;55.416;37.840;2023-06-14T09:12:46;7.72;;;2.78;;
45909;SDS011;31622;55.416;37.840;2023-06-14T09:15:12;4.97;;;2.75;;
45909;SDS011;31622;55.416;37.840;2023-06-14T09:17:39;7.72;;;2.72;;
45909;SDS011;31622;55.416;37.840;2023-06-14T09:20:06;4.25;;;2.67;;
45909;SDS011;31622;55.416;37.840;2023-06-14T09:22:39;6.30;;;2.40;;
45909;SDS011;31622;55.416;37.840;2023-06-14T09:25:05;5.32;;;2.30;;
45909;SDS011;31622;55.416;37.840;2023-06-14T09:27:32;5.50;;;2.70;;
45909;SDS011;31622;55.416;37.840;2023-06-14T09:29:57;5.68;;;2.88;;
45909;SDS011;31622;55.416;37.840;2023-06-14T09:32:23;5.57;;;2.40;;
45909;SDS011;31622;55.416;37.840;2023-06-14T09:34:50;12.18;;;3.55;;
45909;SDS011;31622;55.416;37.840;2023-06-14T09:37:28;10.50;;;3.28;;
45909;SDS011;31622;55.416;37.840;2023-06-14T09:39:55;10.10;;;3.30;;
45909;SDS011;31622;55.416;37.840;2023-06-14T09:42:21;8.25;;;3.42;;
45909;SDS011;31622;55.416;37.840;2023-06-14T09:44:48;4.72;;;2.70;;
45909;SDS011;31622;55.416;37.840;2023-06-14T09:47:15;7.50;;;3.10;;
45909;SDS011;31622;55.416;37.840;2023-06-14T09:49:41;8.10;;;2.65;;
45909;SDS011;31622;55.416;37.840;2023-06-14T09:52:12;6.85;;;2.97;;
45909;SDS011;31622;55.416;37.840;2023-06-14T09:54:43;16.13;;;3.15;;
45909;SDS011;31622;55.416;37.840;2023-06-14T09:57:10;11.88;;;3.63;;
45909;SDS011;31622;55.416;37.840;2023-06-14T09:59:40;4.38;;;2.65;;
45909;SDS011;31622;55.416;37.840;2023-06-14T10:02:12;6.13;;;2.53;;
45909;SDS011;31622;55.416;37.840;2023-06-14T10:04:46;5.00;;;2.60;;
45909;SDS011;31622;55.416;37.840;2023-06-14T10:07:18;3.90;;;2.47;;
45909;SDS011;31622;55.416;37.840;2023-06-14T10:09:45;6.10;;;3.25;;
45909;SDS011;31622;55.416;37.840;2023-06-14T10:12:17;7.10;;;2.60;;
45909;SDS011;31622;55.416;37.840;2023-06-14T10:14:48;5.03;;;2.45;;
45909;SDS011;31622;55.416;37.840;2023-06-14T10:17:17;3.83;;;2.53;;
45909;SDS011;31622;55.416;37.840;2023-06-14T10:19:54;3.80;;;2.72;;
45909;SDS011;31622;55.416;37.840;2023-06-14T10:22:32;3.75;;;2.70;;
45909;SDS011;31622;55.416;37.840;2023-06-14T10:25:01;3.50;;;2.40;;
45909;SDS011;31622;55.416;37.840;2023-06-14T10:27:27;3.67;;;2.50;;
45909;SDS011;31622;55.416;37.840;2023-06-14T10:32:18;5.90;;;2.58;;
45909;SDS011;31622;55.416;37.840;2023-06-14T10:34:44;5.50;;;2.65;;
45909;SDS011;31622;55.416;37.840;2023-06-14T10:37:11;5.18;;;2.63;;
45909;SDS011;31622;55.416;37.840;2023-06-14T10:39:39;3.95;;;2.30;;
45909;SDS011;31622;55.416;37.840;2023-06-14T10:42:06;4.20;;;2.50;;
45909;SDS011;31622;55.416;37.840;2023-06-14T10:44:39;6.30;;;2.85;;
45909;SDS011;31622;55.416;37.840;2023-06-14T10:49:54;4.50;;;2.67;;
45909;SDS011;31622;55.416;37.840;2023-06-14T10:52:31;4.00;;;2.65;;
45909;SDS011;31622;55.416;37.840;2023-06-14T10:55:05;4.60;;;2.65;;
45909;SDS011;31622;55.416;37.840;2023-06-14T10:57:38;6.22;;;2.88;;
45909;SDS011;31622;55.416;37.840;2023-06-14T11:00:09;4.75;;;2.50;;
45909;SDS011;31622;55.416;37.840;2023-06-14T11:05:31;6.65;;;2.97;;
45909;SDS011;31622;55.416;37.840;2023-06-14T11:08:26;4.05;;;2.75;;
45909;SDS011;31622;55.416;37.840;2023-06-14T11:11:00;5.68;;;2.70;;
45909;SDS011;31622;55.416;37.840;2023-06-14T11:13:31;6.45;;;2.80;;
45909;SDS011;31622;55.416;37.840;2023-06-14T11:15:57;4.85;;;2.60;;
45909;SDS011;31622;55.416;37.840;2023-06-14T11:18:23;9.90;;;2.70;;
45909;SDS011;31622;55.416;37.840;2023-06-14T11:20:54;3.70;;;2.60;;
45909;SDS011;31622;55.416;37.840;2023-06-14T11:23:21;6.95;;;3.13;;
45909;SDS011;31622;55.416;37.840;2023-06-14T11:25:51;3.42;;;2.58;;
45909;SDS011;31622;55.416;37.840;2023-06-14T11:28:17;7.28;;;2.92;;
45909;SDS011;31622;55.416;37.840;2023-06-14T11:30:45;6.70;;;3.13;;
45909;SDS011;31622;55.416;37.840;2023-06-14T11:33:11;8.90;;;3.47;;
45909;SDS011;31622;55.416;37.840;2023-06-14T11:35:43;5.03;;;2.90;;
45909;SDS011;31622;55.416;37.840;2023-06-14T11:38:09;5.63;;;3.00;;
45909;SDS011;31622;55.416;37.840;2023-06-14T11:40:37;6.00;;;2.67;;
45909;SDS011;31622;55.416;37.840;2023-06-14T11:43:03;5.60;;;2.47;;
45909;SDS011;31622;55.416;37.840;2023-06-14T11:45:29;6.53;;;3.10;;
45909;SDS011;31622;55.416;37.840;2023-06-14T11:47:56;5.68;;;2.63;;
45909;SDS011;31622;55.416;37.840;2023-06-14T11:50:23;4.88;;;2.67;;
45909;SDS011;31622;55.416;37.840;2023-06-14T11:52:56;6.40;;;3.15;;
45909;SDS011;31622;55.416;37.840;2023-06-14T11:55:24;7.25;;;3.20;;
45909;SDS011;31622;55.416;37.840;2023-06-14T11:57:50;5.30;;;3.05;;
45909;SDS011;31622;55.416;37.840;2023-06-14T12:00:17;6.78;;;3.10;;
45909;SDS011;31622;55.416;37.840;2023-06-14T12:02:51;7.88;;;3.40;;
45909;SDS011;31622;55.416;37.840;2023-06-14T12:05:20;5.88;;;2.78;;
45909;SDS011;31622;55.416;37.840;2023-06-14T12:07:46;4.07;;;3.08;;
45909;SDS011;31622;55.416;37.840;2023-06-14T12:10:12;9.30;;;3.92;;
45909;SDS011;31622;55.416;37.840;2023-06-14T12:12:40;6.38;;;3.60;;
45909;SDS011;31622;55.416;37.840;2023-06-14T12:15:08;7.75;;;3.72;;
45909;SDS011;31622;55.416;37.840;2023-06-14T12:17:35;7.45;;;3.60;;
45909;SDS011;31622;55.416;37.840;2023-06-14T12:20:05;7.63;;;3.60;;
45909;SDS011;31622;55.416;37.840;2023-06-14T12:22:36;6.47;;;3.72;;
45909;SDS011;31622;55.416;37.840;2023-06-14T12:25:02;4.15;;;3.10;;
45909;SDS011;31622;55.416;37.840;2023-06-14T12:27:28;7.10;;;3.20;;
45909;SDS011;31622;55.416;37.840;2023-06-14T12:30:03;7.45;;;3.45;;
45909;SDS011;31622;55.416;37.840;2023-06-14T12:32:32;5.22;;;2.78;;
45909;SDS011;31622;55.416;37.840;2023-06-14T12:34:58;6.47;;;2.60;;
45909;SDS011;31622;55.416;37.840;2023-06-14T12:37:24;6.22;;;3.00;;
45909;SDS011;31622;55.416;37.840;2023-06-14T12:39:50;5.30;;;2.65;;
45909;SDS011;31622;55.416;37.840;2023-06-14T12:42:16;5.60;;;2.50;;
45909;SDS011;31622;55.416;37.840;2023-06-14T12:44:41;7.65;;;3.08;;
45909;SDS011;31622;55.416;37.840;2023-06-14T12:47:07;6.32;;;3.08;;
45909;SDS011;31622;55.416;37.840;2023-06-14T12:49:33;4.75;;;2.95;;
45909;SDS011;31622;55.416;37.840;2023-06-14T12:51:59;5.80;;;3.08;;
45909;SDS011;31622;55.416;37.840;2023-06-14T12:54:24;6.78;;;3.15;;
45909;SDS011;31622;55.416;37.840;2023-06-14T12:56:53;4.82;;;2.83;;
45909;SDS011;31622;55.416;37.840;2023-06-14T12:59:20;4.32;;;2.75;;
45909;SDS011;31622;55.416;37.840;2023-06-14T13:01:45;5.57;;;2.80;;
45909;SDS011;31622;55.416;37.840;2023-06-14T13:04:14;4.57;;;2.50;;
45909;SDS011;31622;55.416;37.840;2023-06-14T13:06:40;6.85;;;3.13;;
45909;SDS011;31622;55.416;37.840;2023-06-14T13:09:06;4.55;;;2.85;;
45909;SDS011;31622;55.416;37.840;2023-06-14T13:11:33;6.07;;;2.75;;
45909;SDS011;31622;55.416;37.840;2023-06-14T13:13:59;6.53;;;3.00;;
45909;SDS011;31622;55.416;37.840;2023-06-14T13:16:24;6.10;;;3.05;;
45909;SDS011;31622;55.416;37.840;2023-06-14T13:18:50;6.68;;;2.90;;
45909;SDS011;31622;55.416;37.840;2023-06-14T13:21:15;4.03;;;3.13;;
45909;SDS011;31622;55.416;37.840;2023-06-14T13:23:41;5.55;;;2.53;;
45909;SDS011;31622;55.416;37.840;2023-06-14T13:26:07;3.40;;;2.30;;
45909;SDS011;31622;55.416;37.840;2023-06-14T13:28:33;11.25;;;3.30;;
45909;SDS011;31622;55.416;37.840;2023-06-14T13:31:00;5.63;;;2.70;;
45909;SDS011;31622;55.416;37.840;2023-06-14T13:33:26;5.43;;;2.60;;
45909;SDS011;31622;55.416;37.840;2023-06-14T13:35:52;4.65;;;2.65;;
45909;SDS011;31622;55.416;37.840;2023-06-14T13:38:18;6.55;;;2.70;;
45909;SDS011;31622;55.416;37.840;2023-06-14T13:40:43;5.00;;;2.70;;
45909;SDS011;31622;55.416;37.840;2023-06-14T13:43:09;5.93;;;2.80;;
45909;SDS011;31622;55.416;37.840;2023-06-14T13:45:35;3.45;;;2.70;;
45909;SDS011;31622;55.416;37.840;2023-06-14T13:48:01;4.95;;;2.63;;
45909;SDS011;31622;55.416;37.840;2023-06-14T13:50:26;4.72;;;2.67;;
45909;SDS011;31622;55.416;37.840;2023-06-14T13:52:52;4.20;;;2.50;;
45909;SDS011;31622;55.416;37.840;2023-06-14T13:55:18;4.43;;;2.75;;
45909;SDS011;31622;55.416;37.840;2023-06-14T13:57:44;4.25;;;2.67;;
45909;SDS011;31622;55.416;37.840;2023-06-14T14:00:10;5.25;;;2.70;;
45909;SDS011;31622;55.416;37.840;2023-06-14T14:02:39;7.00;;;2.38;;
45909;SDS011;31622;55.416;37.840;2023-06-14T14:05:05;5.85;;;3.20;;
45909;SDS011;31622;55.416;37.840;2023-06-14T14:07:31;6.85;;;2.80;;
45909;SDS011;31622;55.416;37.840;2023-06-14T14:09:57;5.70;;;2.75;;
45909;SDS011;31622;55.416;37.840;2023-06-14T14:12:23;6.47;;;2.70;;
45909;SDS011;31622;55.416;37.840;2023-06-14T14:14:49;7.03;;;2.70;;
45909;SDS011;31622;55.416;37.840;2023-06-14T14:17:15;5.95;;;2.50;;
45909;SDS011;31622;55.416;37.840;2023-06-14T14:19:41;5.95;;;2.90;;
45909;SDS011;31622;55.416;37.840;2023-06-14T14:22:06;6.13;;;2.72;;
45909;SDS011;31622;55.416;37.840;2023-06-14T14:24:32;5.43;;;3.00;;
45909;SDS011;31622;55.416;37.840;2023-06-14T14:26:58;6.40;;;2.80;;
45909;SDS011;31622;55.416;37.840;2023-06-14T14:29:25;4.88;;;2.97;;
45909;SDS011;31622;55.416;37.840;2023-06-14T14:31:54;7.00;;;2.80;;
45909;SDS011;31622;55.416;37.840;2023-06-14T14:34:21;6.18;;;3.10;;
45909;SDS011;31622;55.416;37.840;2023-06-14T14:36:46;5.80;;;3.38;;
45909;SDS011;31622;55.416;37.840;2023-06-14T14:39:12;7.90;;;3.30;;
45909;SDS011;31622;55.416;37.840;2023-06-14T14:41:38;7.82;;;3.90;;
45909;SDS011;31622;55.416;37.840;2023-06-14T14:44:05;5.32;;;2.95;;
45909;SDS011;31622;55.416;37.840;2023-06-14T14:46:31;5.00;;;2.80;;